Time;durP1;ratioP1;P1;durP2;ratioP2;P2;SDS_P1;SDS_P2;PMS_P1;PMS_P2;Temp;Humidity;BMP_temperature;BMP_pressure;BME280_temperature;BME280_humidity;BME280_pressure;Samples;Min_cycle;Max_cycle;Signal;HPM_P1;HPM_P2
2023/08/18 00:00:45;;;;;;;2.90;1.10;;;;;;;18.11;100.00;100151.27;110042;1274;100298;-67
2023/08/18 00:03:34;;;;;;;2.40;1.20;;;;;;;18.08;100.00;100156.38;110124;1273;22865;-66
2023/08/18 00:06:03;;;;;;;2.60;1.10;;;;;;;17.99;100.00;100158.44;110046;1272;100491;-66
2023/08/18 00:08:32;;;;;;;1.60;1.10;;;;;;;17.96;100.00;100158.84;110085;1270;22190;-66
2023/08/18 00:11:01;;;;;;;4.60;1.40;;;;;;;17.98;100.00;100152.00;110187;1274;22273;-66
2023/08/18 00:13:30;;;;;;;6.10;2.00;;;;;;;17.95;100.00;100153.29;110035;1271;100078;-66
2023/08/18 00:15:59;;;;;;;2.70;1.60;;;;;;;17.90;100.00;100156.13;110115;1272;22345;-66
2023/08/18 00:18:27;;;;;;;2.90;1.80;;;;;;;17.90;100.00;100153.11;109993;1277;99851;-67
2023/08/18 00:20:56;;;;;;;5.40;1.70;;;;;;;17.90;100.00;100152.05;110090;1275;22142;-67
2023/08/18 00:23:24;;;;;;;3.10;1.60;;;;;;;17.91;100.00;100150.98;110007;1272;100959;-67
2023/08/18 00:25:53;;;;;;;4.20;1.70;;;;;;;17.92;100.00;100150.36;110128;1273;22201;-67
2023/08/18 00:28:21;;;;;;;2.80;1.50;;;;;;;17.96;100.00;100150.55;110066;1276;22128;-67
2023/08/18 00:30:50;;;;;;;6.10;1.90;;;;;;;18.00;100.00;100151.91;110000;1275;99452;-66
2023/08/18 00:33:18;;;;;;;2.80;1.60;;;;;;;18.03;100.00;100150.40;110110;1273;22121;-66
2023/08/18 00:35:47;;;;;;;3.30;1.70;;;;;;;18.07;100.00;100149.26;110056;1274;100424;-66
2023/08/18 00:38:15;;;;;;;2.70;1.90;;;;;;;18.01;100.00;100143.16;110081;1272;22204;-67
2023/08/18 00:40:44;;;;;;;3.30;1.90;;;;;;;17.95;100.00;100145.20;110224;1273;22128;-66
2023/08/18 00:43:15;;;;;;;3.40;1.60;;;;;;;17.92;100.00;100140.87;110085;1272;100331;-67
2023/08/18 00:45:44;;;;;;;4.80;1.90;;;;;;;17.91;100.00;100136.11;110114;1272;23079;-67
2023/08/18 00:48:13;;;;;;;5.00;2.20;;;;;;;17.91;100.00;100140.39;110097;1273;100354;-67
2023/08/18 00:50:44;;;;;;;5.60;2.60;;;;;;;17.88;100.00;100140.08;110133;1275;22087;-67
2023/08/18 00:53:13;;;;;;;4.00;2.10;;;;;;;17.84;100.00;100138.39;110040;1274;100894;-67
2023/08/18 00:55:42;;;;;;;4.70;2.00;;;;;;;17.83;100.00;100130.39;110112;1272;22080;-67
2023/08/18 00:58:11;;;;;;;4.40;2.60;;;;;;;17.82;100.00;100127.29;110055;1276;22276;-67
2023/08/18 01:00:40;;;;;;;4.80;2.50;;;;;;;17.80;100.00;100127.75;109993;1275;100295;-67
2023/08/18 01:03:10;;;;;;;7.10;2.30;;;;;;;17.75;100.00;100123.73;110096;1276;23340;-66
2023/08/18 01:05:38;;;;;;;2.90;1.90;;;;;;;17.76;100.00;100125.07;110101;1275;100609;-67
2023/08/18 01:08:07;;;;;;;4.80;2.00;;;;;;;17.82;100.00;100123.77;110167;1270;22148;-66
2023/08/18 01:10:51;;;;;;;3.00;2.00;;;;;;;17.85;100.00;100122.84;110216;1273;22236;-67
2023/08/18 01:13:33;;;;;;;2.30;1.70;;;;;;;17.85;100.00;100122.29;110021;1271;100291;-66
2023/08/18 01:16:06;;;;;;;4.60;2.30;;;;;;;17.89;100.00;100126.28;110102;1278;22583;-66
2023/08/18 01:18:34;;;;;;;3.70;2.40;;;;;;;17.93;100.00;100124.16;110051;1275;100254;-66
2023/08/18 01:21:05;;;;;;;2.70;2.00;;;;;;;17.95;100.00;100123.37;110105;1273;22222;-67
2023/08/18 01:23:38;;;;;;;5.50;2.40;;;;;;;17.83;100.00;100123.54;109986;1273;100417;-67
2023/08/18 01:26:06;;;;;;;3.90;2.30;;;;;;;17.67;100.00;100115.45;110090;1276;23028;-67
2023/08/18 01:28:36;;;;;;;2.80;1.80;;;;;;;17.66;100.00;100110.09;110136;1273;22500;-66
2023/08/18 01:31:12;;;;;;;3.50;2.00;;;;;;;17.65;100.00;100112.58;110094;1276;99873;-67
2023/08/18 01:33:58;;;;;;;4.30;2.30;;;;;;;17.66;100.00;100109.20;110161;1273;22446;-66
2023/08/18 01:36:33;;;;;;;3.20;2.00;;;;;;;17.70;100.00;100109.58;110058;1277;100052;-66
2023/08/18 01:39:02;;;;;;;3.50;1.70;;;;;;;17.78;100.00;100112.41;110110;1276;22143;-66
2023/08/18 01:41:32;;;;;;;5.00;1.80;;;;;;;17.78;100.00;100106.39;110044;1276;100459;-66
2023/08/18 01:44:02;;;;;;;3.40;1.40;;;;;;;17.80;100.00;100099.80;110068;1273;22302;-66
2023/08/18 01:46:30;;;;;;;2.10;1.50;;;;;;;17.86;100.00;100092.69;110103;1276;22239;-66
2023/08/18 01:48:59;;;;;;;4.70;1.90;;;;;;;17.89;100.00;100090.14;110020;1273;100429;-66
2023/08/18 01:51:27;;;;;;;3.00;1.70;;;;;;;17.87;100.00;100086.98;110104;1273;22161;-66
2023/08/18 01:53:56;;;;;;;7.10;1.80;;;;;;;17.87;100.00;100087.29;110089;1272;99800;-66
2023/08/18 01:56:25;;;;;;;5.50;1.60;;;;;;;17.89;100.00;100078.37;110117;1273;22122;-66
2023/08/18 01:58:53;;;;;;;4.00;1.50;;;;;;;17.87;100.00;100077.09;110110;1277;22383;-67
2023/08/18 02:01:22;;;;;;;4.60;1.80;;;;;;;17.89;100.00;100070.59;110031;1276;99863;-67
2023/08/18 02:03:50;;;;;;;2.20;1.40;;;;;;;17.94;100.00;100064.41;110126;1273;22275;-67
2023/08/18 02:06:19;;;;;;;4.30;1.60;;;;;;;17.94;100.00;100064.64;110093;1273;99846;-67
2023/08/18 02:08:48;;;;;;;5.00;1.60;;;;;;;17.90;100.00;100066.80;110153;1275;22640;-67
2023/08/18 02:11:16;;;;;;;2.90;1.60;;;;;;;17.88;100.00;100069.61;110107;1273;101651;-67
2023/08/18 02:13:44;;;;;;;2.30;1.30;;;;;;;17.92;100.00;100061.24;110079;1274;22259;-67
2023/08/18 02:16:13;;;;;;;3.20;1.30;;;;;;;18.00;100.00;100060.65;110167;1269;22095;-67
2023/08/18 02:18:42;;;;;;;2.60;1.20;;;;;;;18.05;100.00;100056.73;110119;1273;99880;-66
2023/08/18 02:21:14;;;;;;;2.50;1.40;;;;;;;18.05;100.00;100058.70;110020;1274;22921;-66
2023/08/18 02:23:43;;;;;;;2.90;1.50;;;;;;;18.04;100.00;100057.18;110069;1273;100127;-67
2023/08/18 02:26:11;;;;;;;2.00;1.50;;;;;;;18.07;100.00;100062.25;110154;1275;22310;-67
2023/08/18 02:28:39;;;;;;;3.40;1.50;;;;;;;18.14;100.00;100061.79;110147;1273;22135;-67
2023/08/18 02:31:10;;;;;;;3.10;1.90;;;;;;;18.18;100.00;100054.97;110175;1274;99753;-67
2023/08/18 02:33:39;;;;;;;5.70;2.30;;;;;;;18.21;100.00;100057.38;110187;1277;22135;-67
2023/08/18 02:36:07;;;;;;;3.60;1.90;;;;;;;18.17;100.00;100058.68;110098;1273;100152;-67
2023/08/18 02:38:37;;;;;;;3.00;1.90;;;;;;;18.04;100.00;100060.70;110180;1275;23488;-67
2023/08/18 02:41:07;;;;;;;4.40;1.90;;;;;;;17.94;100.00;100059.66;110186;1273;23154;-66
2023/08/18 02:43:36;;;;;;;5.80;2.50;;;;;;;17.90;100.00;100058.02;110165;1272;22275;-66
2023/08/18 02:46:04;;;;;;;7.80;3.10;;;;;;;17.88;100.00;100060.26;110211;1273;22272;-67
2023/08/18 02:48:33;;;;;;;6.10;2.80;;;;;;;17.87;100.00;100057.02;110139;1273;99721;-67
2023/08/18 02:51:08;;;;;;;4.80;2.40;;;;;;;17.84;100.00;100060.76;110108;1275;22304;-66
2023/08/18 02:53:37;;;;;;;4.40;2.20;;;;;;;17.82;100.00;100059.49;110057;1275;99990;-68
2023/08/18 02:56:06;;;;;;;5.70;3.10;;;;;;;17.73;100.00;100056.58;110184;1276;23072;-67
2023/08/18 02:58:35;;;;;;;3.90;2.30;;;;;;;17.65;100.00;100065.89;110200;1273;22160;-67
2023/08/18 03:01:06;;;;;;;3.80;2.70;;;;;;;17.65;100.00;100066.79;110190;1270;99847;-66
2023/08/18 03:03:35;;;;;;;6.60;3.50;;;;;;;17.66;100.00;100064.25;110160;1273;22271;-66
2023/08/18 03:06:05;;;;;;;5.60;2.60;;;;;;;17.65;100.00;100061.66;110112;1274;100485;-67
2023/08/18 03:08:39;;;;;;;5.50;2.70;;;;;;;17.64;100.00;100066.36;110126;1276;22464;-66
2023/08/18 03:11:08;;;;;;;3.60;2.20;;;;;;;17.63;100.00;100064.46;110116;1272;22279;-67
2023/08/18 03:13:37;;;;;;;5.40;2.50;;;;;;;17.62;100.00;100071.74;110144;1273;22375;-67
2023/08/18 03:16:09;;;;;;;3.50;2.60;;;;;;;17.59;100.00;100074.27;110147;1273;22145;-67
2023/08/18 03:18:37;;;;;;;5.90;2.80;;;;;;;17.57;100.00;100065.23;110060;1274;99895;-66
2023/08/18 03:21:06;;;;;;;24.70;4.50;;;;;;;17.50;100.00;100064.34;110114;1275;22839;-67
2023/08/18 03:23:35;;;;;;;13.40;4.10;;;;;;;17.46;100.00;100069.61;110020;1272;100256;-67
2023/08/18 03:26:05;;;;;;;17.50;3.70;;;;;;;17.45;100.00;100076.16;110149;1273;22118;-67
2023/08/18 03:28:38;;;;;;;16.90;3.10;;;;;;;17.41;100.00;100075.56;110093;1277;22320;-66
2023/08/18 03:31:27;;;;;;;7.50;3.50;;;;;;;17.37;100.00;100078.12;110069;1273;100035;-66
2023/08/18 03:33:56;;;;;;;3.70;2.20;;;;;;;17.32;100.00;100082.92;110181;1273;22354;-68
2023/08/18 03:36:29;;;;;;;6.20;2.30;;;;;;;17.32;100.00;100082.70;110094;1272;99969;-66
2023/08/18 03:39:00;;;;;;;8.60;2.60;;;;;;;17.31;100.00;100080.14;110170;1273;22145;-66
2023/08/18 03:41:29;;;;;;;4.00;2.60;;;;;;;17.33;100.00;100079.14;110022;1279;100433;-66
2023/08/18 03:43:58;;;;;;;3.40;2.20;;;;;;;17.36;100.00;100081.00;110122;1274;22163;-66
2023/08/18 03:46:27;;;;;;;2.40;2.00;;;;;;;17.38;100.00;100078.41;110077;1272;22302;-67
2023/08/18 03:48:56;;;;;;;3.20;1.70;;;;;;;17.40;100.00;100077.05;110087;1273;99837;-66
2023/08/18 03:51:25;;;;;;;3.00;2.40;;;;;;;17.39;100.00;100081.14;110114;1265;22165;-66
2023/08/18 03:53:54;;;;;;;2.00;1.80;;;;;;;17.38;100.00;100085.48;110087;1273;100209;-67
2023/08/18 03:56:27;;;;;;;2.30;1.70;;;;;;;17.34;100.00;100084.02;110096;1267;22284;-67
2023/08/18 03:59:32;;;;;;;1.60;1.50;;;;;;;17.35;100.00;100083.94;109999;1273;100370;-66
2023/08/18 04:02:01;;;;;;;3.00;1.40;;;;;;;17.42;100.00;100088.16;110142;1273;22316;-66
2023/08/18 04:04:29;;;;;;;2.50;2.10;;;;;;;17.48;100.00;100089.99;110134;1276;22339;-66
2023/08/18 04:06:57;;;;;;;2.90;2.20;;;;;;;17.58;100.00;100091.27;109993;1271;99815;-66
2023/08/18 04:09:26;;;;;;;2.20;2.00;;;;;;;17.65;100.00;100085.45;110110;1273;22323;-66
2023/08/18 04:11:56;;;;;;;2.00;1.60;;;;;;;17.75;100.00;100089.36;110052;1273;100272;-67
2023/08/18 04:14:25;;;;;;;2.80;1.60;;;;;;;17.86;100.00;100087.55;110124;1274;22291;-66
2023/08/18 04:16:54;;;;;;;2.50;1.90;;;;;;;17.97;100.00;100087.47;110090;1265;22281;-66
2023/08/18 04:19:23;;;;;;;2.80;2.00;;;;;;;18.04;100.00;100095.76;110068;1272;99901;-67
2023/08/18 04:21:52;;;;;;;2.40;1.80;;;;;;;18.07;100.00;100100.31;110055;1273;22294;-66
2023/08/18 04:24:21;;;;;;;2.90;1.90;;;;;;;18.10;100.00;100098.48;110022;1272;99879;-67
2023/08/18 04:26:58;;;;;;;3.20;2.10;;;;;;;18.12;100.00;100098.68;110159;1268;22350;-67
2023/08/18 04:29:27;;;;;;;3.80;2.30;;;;;;;18.16;100.00;100094.93;110093;1273;99940;-66
2023/08/18 04:31:55;;;;;;;2.70;2.00;;;;;;;18.21;100.00;100097.36;110141;1272;22385;-66
2023/08/18 04:34:24;;;;;;;6.60;2.50;;;;;;;18.22;100.00;100092.90;110122;1272;22203;-67
2023/08/18 04:36:53;;;;;;;3.30;2.40;;;;;;;18.21;100.00;100094.02;110019;1272;99810;-67
2023/08/18 04:39:22;;;;;;;4.80;2.10;;;;;;;18.26;100.00;100093.47;110182;1273;22168;-67
2023/08/18 04:41:50;;;;;;;5.10;2.10;;;;;;;18.39;100.00;100088.46;110109;1272;99928;-67
2023/08/18 04:44:19;;;;;;;4.60;2.70;;;;;;;18.54;100.00;100088.89;110151;1272;22290;-67
2023/08/18 04:46:47;;;;;;;5.80;3.30;;;;;;;18.70;100.00;100092.14;110206;1273;22137;-67
2023/08/18 04:49:16;;;;;;;7.70;2.90;;;;;;;18.88;100.00;100090.28;110090;1273;99886;-66
2023/08/18 04:51:44;;;;;;;5.50;2.60;;;;;;;19.09;100.00;100092.58;110232;1273;22265;-67
2023/08/18 04:54:13;;;;;;;4.40;2.90;;;;;;;19.26;100.00;100094.57;110091;1273;98783;-67
2023/08/18 04:56:41;;;;;;;6.20;3.10;;;;;;;19.43;100.00;100094.52;110204;1272;22232;-68
2023/08/18 04:59:10;;;;;;;5.70;2.70;;;;;;;19.61;100.00;100089.42;110175;1274;22160;-67
2023/08/18 05:01:38;;;;;;;7.20;2.90;;;;;;;19.84;100.00;100085.26;110215;1267;22169;-67
2023/08/18 05:04:07;;;;;;;4.00;2.90;;;;;;;20.08;100.00;100086.05;110169;1274;22147;-66
2023/08/18 05:06:35;;;;;;;13.80;3.00;;;;;;;20.28;100.00;100081.73;110153;1273;99797;-67
2023/08/18 05:09:05;;;;;;;7.50;2.90;;;;;;;20.46;100.00;100083.05;110164;1275;22431;-67
2023/08/18 05:11:36;;;;;;;3.70;2.40;;;;;;;20.58;100.00;100088.13;110025;1260;100861;-66
2023/08/18 05:14:06;;;;;;;4.00;2.40;;;;;;;20.52;100.00;100089.86;110202;1273;22937;-66
2023/08/18 05:16:36;;;;;;;5.00;2.30;;;;;;;20.45;100.00;100085.10;110118;1273;22319;-67
2023/08/18 05:19:08;;;;;;;5.20;2.70;;;;;;;20.50;100.00;100082.43;110051;1272;100178;-66
2023/08/18 05:21:37;;;;;;;3.40;2.00;;;;;;;20.59;100.00;100077.21;110089;1275;22407;-67
2023/08/18 05:24:06;;;;;;;2.00;1.60;;;;;;;20.63;100.00;100073.54;109990;1274;100044;-67
2023/08/18 05:26:36;;;;;;;4.90;1.70;;;;;;;20.63;100.00;100080.27;110136;1273;23240;-67
2023/08/18 05:29:04;;;;;;;3.00;1.90;;;;;;;20.65;100.00;100086.83;110154;1273;22354;-67
2023/08/18 05:31:35;;;;;;;2.00;1.40;;;;;;;20.65;100.00;100090.01;110160;1273;100132;-68
2023/08/18 05:34:04;;;;;;;1.50;1.30;;;;;;;20.69;100.00;100093.91;110258;1272;22299;-69
2023/08/18 05:36:33;;;;;;;3.20;2.00;;;;;;;20.86;100.00;100092.98;110119;1273;100236;-66
2023/08/18 05:39:08;;;;;;;2.80;1.70;;;;;;;21.06;100.00;100094.02;110108;1276;22280;-67
2023/08/18 05:41:39;;;;;;;2.20;1.90;;;;;;;21.12;100.00;100098.81;110079;1271;100018;-68
2023/08/18 05:44:08;;;;;;;2.90;2.40;;;;;;;21.09;100.00;100112.67;110188;1272;22395;-68
2023/08/18 05:46:39;;;;;;;3.00;1.70;;;;;;;21.05;100.00;100119.23;110179;1265;22166;-69
2023/08/18 05:49:23;;;;;;;2.00;1.70;;;;;;;21.13;100.00;100119.73;110033;1272;99644;-68
2023/08/18 05:51:51;;;;;;;1.80;1.60;;;;;;;21.32;100.00;100112.30;110151;1273;22215;-69
2023/08/18 05:54:21;;;;;;;2.70;1.80;;;;;;;21.36;100.00;100113.05;110014;1273;99898;-70
2023/08/18 05:56:50;;;;;;;2.30;1.60;;;;;;;21.42;100.00;100121.05;110172;1273;22393;-70
2023/08/18 05:59:18;;;;;;;2.10;1.90;;;;;;;21.50;100.00;100124.79;110073;1272;100521;-67
2023/08/18 06:01:46;;;;;;;2.40;1.90;;;;;;;21.42;100.00;100116.73;110176;1274;22720;-71
2023/08/18 06:04:15;;;;;;;3.90;2.40;;;;;;;21.30;100.00;100115.81;109950;1273;305967;-70
2023/08/18 06:06:44;;;;;;;4.10;2.50;;;;;;;21.20;100.00;100119.01;110101;1272;100088;-65
2023/08/18 06:09:12;;;;;;;4.20;2.50;;;;;;;21.17;100.00;100116.90;110119;1273;22760;-64
2023/08/18 06:11:41;;;;;;;3.40;2.90;;;;;;;21.16;100.00;100118.09;110129;1272;100747;-66
2023/08/18 06:14:10;;;;;;;2.50;2.20;;;;;;;21.13;100.00;100115.80;110188;1272;22288;-68
2023/08/18 06:16:39;;;;;;;2.30;2.00;;;;;;;21.19;100.00;100110.70;110221;1271;22294;-68
2023/08/18 06:19:08;;;;;;;3.60;2.40;;;;;;;21.31;100.00;100101.98;110133;1273;99120;-68
2023/08/18 06:21:37;;;;;;;3.30;2.50;;;;;;;21.35;100.00;100089.77;110199;1272;22155;-66
2023/08/18 06:24:08;;;;;;;4.30;2.40;;;;;;;21.39;100.00;100083.55;110127;1273;99729;-66
2023/08/18 06:26:36;;;;;;;4.90;2.70;;;;;;;21.41;100.00;100092.40;110215;1273;22138;-68
2023/08/18 06:29:05;;;;;;;3.30;2.50;;;;;;;21.40;100.00;100099.80;110190;1257;22308;-66
2023/08/18 06:31:34;;;;;;;2.10;1.80;;;;;;;21.39;100.00;100099.69;110115;1273;99638;-68
2023/08/18 06:34:02;;;;;;;3.20;2.00;;;;;;;21.47;100.00;100106.23;110190;1273;22754;-69
2023/08/18 06:36:31;;;;;;;2.30;1.70;;;;;;;21.63;100.00;100110.66;110100;1272;99770;-67
2023/08/18 06:38:59;;;;;;;2.30;2.00;;;;;;;21.84;100.00;100111.68;110176;1272;22297;-71
2023/08/18 06:41:28;;;;;;;2.30;2.10;;;;;;;22.14;100.00;100111.85;110091;1272;100102;-69
2023/08/18 06:43:57;;;;;;;3.90;2.10;;;;;;;22.35;100.00;100115.88;110179;1271;23139;-67
2023/08/18 06:46:25;;;;;;;3.60;1.40;;;;;;;22.55;100.00;100110.84;110130;1272;22119;-68
2023/08/18 06:48:54;;;;;;;2.20;1.50;;;;;;;22.78;100.00;100117.77;110096;1272;100657;-67
2023/08/18 06:51:22;;;;;;;4.40;1.90;;;;;;;22.95;100.00;100126.70;110138;1272;22407;-68
2023/08/18 06:53:51;;;;;;;3.60;1.90;;;;;;;23.00;100.00;100121.06;110029;1273;100506;-67
2023/08/18 06:56:19;;;;;;;4.20;2.60;;;;;;;22.96;100.00;100121.23;110153;1272;22875;-68
2023/08/18 06:58:48;;;;;;;4.00;2.40;;;;;;;22.97;99.91;100113.39;110238;1272;22300;-67
2023/08/18 07:01:16;;;;;;;16.40;6.20;;;;;;;23.09;100.00;100114.11;110161;1272;102292;-67
2023/08/18 07:03:45;;;;;;;21.00;9.10;;;;;;;23.40;99.76;100116.29;110158;1273;22334;-68
2023/08/18 07:06:14;;;;;;;6.20;3.50;;;;;;;23.61;99.33;100105.23;110102;1272;100065;-66
2023/08/18 07:08:42;;;;;;;2.20;2.00;;;;;;;23.65;98.05;100112.88;110051;1272;22546;-66
2023/08/18 07:11:11;;;;;;;3.10;2.20;;;;;;;23.94;98.66;100099.45;110216;1273;23091;-66
2023/08/18 07:13:40;;;;;;;3.10;2.10;;;;;;;24.55;98.81;100088.20;110194;1265;22047;-69
2023/08/18 07:16:08;;;;;;;2.40;1.90;;;;;;;25.33;99.47;100089.42;110233;1267;22971;-65
2023/08/18 07:18:37;;;;;;;3.60;2.80;;;;;;;26.06;98.52;100092.81;110086;1272;99645;-66
2023/08/18 07:21:06;;;;;;;2.20;2.00;;;;;;;26.58;96.12;100088.20;110172;1273;22900;-61
2023/08/18 07:23:34;;;;;;;2.20;1.90;;;;;;;26.98;94.85;100086.77;110137;1272;99717;-63
2023/08/18 07:26:03;;;;;;;3.70;2.10;;;;;;;27.58;94.75;100092.06;110165;1273;22148;-63
2023/08/18 07:28:32;;;;;;;2.90;2.00;;;;;;;27.82;92.16;100097.77;110166;1272;22181;-62
2023/08/18 07:31:03;;;;;;;3.40;2.00;;;;;;;27.71;89.80;100100.59;110125;1273;99692;-63
2023/08/18 07:33:35;;;;;;;2.70;1.70;;;;;;;27.53;88.82;100099.70;110270;1272;22181;-63
2023/08/18 07:36:08;;;;;;;3.70;1.70;;;;;;;27.66;88.21;100097.61;110141;1272;103092;-63
2023/08/18 07:38:36;;;;;;;2.70;1.80;;;;;;;28.31;88.09;100090.69;110254;1273;22145;-62
2023/08/18 07:41:05;;;;;;;3.30;2.10;;;;;;;29.14;87.84;100085.35;110271;1272;22375;-62
2023/08/18 07:43:34;;;;;;;1.80;1.70;;;;;;;29.55;86.62;100081.90;110078;1274;98941;-61
2023/08/18 07:46:02;;;;;;;2.10;1.70;;;;;;;29.58;84.39;100081.16;110178;1272;23179;-62
2023/08/18 07:48:32;;;;;;;1.80;1.50;;;;;;;29.22;82.70;100089.51;110069;1272;100205;-62
2023/08/18 07:51:00;;;;;;;2.80;1.80;;;;;;;28.94;82.12;100091.98;110136;1273;22210;-62
2023/08/18 07:53:29;;;;;;;5.10;2.00;;;;;;;28.58;80.83;100088.70;110115;1273;99760;-62
2023/08/18 07:55:58;;;;;;;2.50;2.30;;;;;;;28.27;80.16;100091.23;110201;1272;22284;-62
2023/08/18 07:58:27;;;;;;;2.60;2.10;;;;;;;28.24;79.61;100092.48;110164;1274;22175;-63
2023/08/18 08:00:56;;;;;;;4.30;2.20;;;;;;;28.26;78.48;100093.20;110107;1274;99851;-62
2023/08/18 08:03:26;;;;;;;2.10;1.70;;;;;;;28.29;77.58;100089.55;110238;1273;22462;-62
2023/08/18 08:05:58;;;;;;;5.10;2.00;;;;;;;28.61;76.26;100093.92;110098;1274;99832;-62
2023/08/18 08:08:27;;;;;;;2.80;2.20;;;;;;;28.61;75.66;100086.41;110208;1270;22221;-62
2023/08/18 08:10:55;;;;;;;3.60;2.20;;;;;;;28.86;76.01;100082.98;110238;1271;22276;-64
2023/08/18 08:13:25;;;;;;;2.80;1.90;;;;;;;29.11;74.96;100091.13;110037;1273;100034;-63
2023/08/18 08:15:54;;;;;;;3.60;2.40;;;;;;;29.08;74.56;100089.01;110223;1273;22977;-63
2023/08/18 08:18:22;;;;;;;4.30;2.40;;;;;;;29.61;74.62;100086.65;110146;1272;99642;-63
2023/08/18 08:20:51;;;;;;;2.30;1.80;;;;;;;30.38;74.55;100084.16;110242;1273;22016;-63
2023/08/18 08:23:20;;;;;;;3.00;1.70;;;;;;;30.30;72.91;100091.91;110151;1274;99736;-64
2023/08/18 08:25:48;;;;;;;3.40;2.50;;;;;;;29.75;72.03;100096.70;110132;1272;22308;-63
2023/08/18 08:28:22;;;;;;;3.30;2.30;;;;;;;29.15;71.31;100096.06;110263;1273;22472;-64
2023/08/18 08:30:51;;;;;;;2.20;1.90;;;;;;;28.92;71.56;100091.88;110100;1273;99604;-63
2023/08/18 08:33:22;;;;;;;2.60;2.20;;;;;;;28.67;70.59;100097.30;110266;1272;22272;-64
2023/08/18 08:35:51;;;;;;;2.20;2.00;;;;;;;28.26;69.87;100101.14;110156;1272;99826;-63
2023/08/18 08:38:20;;;;;;;4.20;2.30;;;;;;;28.23;70.51;100096.52;110252;1272;22308;-64
2023/08/18 08:41:00;;;;;;;5.80;2.50;;;;;;;30.78;74.12;100079.94;110228;1275;22285;-64
2023/08/18 08:43:29;;;;;;;2.70;1.90;;;;;;;33.51;70.95;100078.07;110137;1272;100051;-64
2023/08/18 08:46:00;;;;;;;2.10;1.90;;;;;;;33.76;69.54;100081.95;110165;1273;22299;-65
2023/08/18 08:48:44;;;;;;;2.90;2.00;;;;;;;34.30;70.07;100084.90;110134;1274;99633;-65
2023/08/18 08:51:15;;;;;;;2.20;1.70;;;;;;;35.09;68.34;100086.80;110199;1274;22223;-64
2023/08/18 08:53:50;;;;;;;4.50;1.80;;;;;;;34.69;66.74;100092.15;110125;1273;99818;-65
2023/08/18 08:56:22;;;;;;;8.70;2.20;;;;;;;33.82;65.21;100091.31;110180;1272;23053;-64
2023/08/18 08:58:51;;;;;;;2.80;1.90;;;;;;;33.50;65.53;100090.23;110244;1273;22285;-63
2023/08/18 09:01:22;;;;;;;2.10;1.70;;;;;;;35.46;66.44;100087.05;110126;1274;100043;-67
2023/08/18 09:03:51;;;;;;;3.80;2.20;;;;;;;38.05;64.07;100079.26;110166;1272;22349;-64
2023/08/18 09:06:20;;;;;;;3.30;1.90;;;;;;;39.43;61.84;100082.92;110099;1272;99686;-62
2023/08/18 09:08:52;;;;;;;4.30;2.00;;;;;;;39.57;58.31;100079.06;110186;1265;22962;-63
2023/08/18 09:12:13;;;;;;;2.00;1.50;;;;;;;39.00;56.49;100076.98;110055;1272;99803;-70
2023/08/18 09:14:45;;;;;;;3.10;1.70;;;;;;;38.97;55.00;100073.13;110116;1273;22380;-71
2023/08/18 09:17:24;;;;;;;1.80;1.20;;;;;;;38.46;53.34;100076.22;110066;1274;22016;-66
2023/08/18 09:19:57;;;;;;;2.60;1.70;;;;;;;37.80;50.69;100082.48;110082;1274;22289;-66
2023/08/18 09:22:27;;;;;;;4.70;1.80;;;;;;;37.78;49.01;100080.25;110150;1272;23202;-67
2023/08/18 09:24:57;;;;;;;2.40;1.50;;;;;;;37.34;48.18;100077.81;110067;1273;99691;-63
2023/08/18 09:27:27;;;;;;;2.70;1.60;;;;;;;36.89;47.89;100079.36;110193;1273;22422;-70
2023/08/18 09:29:57;;;;;;;2.30;1.70;;;;;;;36.56;47.39;100078.13;110061;1273;100038;-67
2023/08/18 09:32:27;;;;;;;2.30;1.50;;;;;;;36.21;46.68;100070.85;110182;1273;22375;-67
2023/08/18 09:34:57;;;;;;;2.20;1.50;;;;;;;35.67;46.27;100064.06;110146;1274;22752;-71
2023/08/18 09:37:30;;;;;;;3.40;2.10;;;;;;;35.69;46.53;100060.45;110116;1273;100206;-69
2023/08/18 09:40:03;;;;;;;2.60;1.60;;;;;;;36.25;46.82;100050.31;110151;1272;22357;-69
2023/08/18 09:42:31;;;;;;;2.30;1.70;;;;;;;36.56;46.51;100056.37;110023;1274;100152;-70
2023/08/18 09:45:02;;;;;;;3.90;2.00;;;;;;;36.65;46.72;100055.51;110098;1275;23488;-63
2023/08/18 09:51:01;;;;;;;2.80;1.70;;;;;;;39.35;47.02;100041.98;109464;1276;22171;-71
2023/08/18 09:53:31;;;;;;;2.50;1.50;;;;;;;40.45;46.24;100035.90;109618;1267;100164;-71
2023/08/18 09:56:11;;;;;;;1.50;1.10;;;;;;;40.81;45.90;100044.70;109595;1276;22298;-67
2023/08/18 09:58:54;;;;;;;3.40;1.90;;;;;;;41.68;45.83;100049.09;109585;1277;22275;-65
2023/08/18 10:01:25;;;;;;;6.70;1.90;;;;;;;42.84;43.85;100047.60;109357;1277;100251;-65
2023/08/18 10:03:54;;;;;;;2.70;1.70;;;;;;;41.03;39.45;100044.08;109592;1277;22193;-66
2023/08/18 10:06:23;;;;;;;2.00;1.40;;;;;;;38.64;38.03;100048.81;109520;1268;99607;-67
2023/08/18 10:08:52;;;;;;;2.60;1.80;;;;;;;37.49;37.66;100048.99;109573;1276;23098;-66
2023/08/18 10:11:20;;;;;;;2.00;1.20;;;;;;;36.54;37.44;100046.14;109550;1276;22501;-66
2023/08/18 10:13:51;;;;;;;1.90;1.20;;;;;;;36.14;38.06;100045.67;109614;1276;22298;-67
2023/08/18 10:16:20;;;;;;;20.00;2.30;;;;;;;37.55;39.21;100055.41;109598;1277;25815;-67
2023/08/18 10:18:56;;;;;;;4.80;1.00;;;;;;;38.97;37.96;100051.56;109505;1276;101015;-68
2023/08/18 10:21:27;;;;;;;2.20;1.20;;;;;;;38.96;38.26;100058.96;109532;1274;22139;-68
2023/08/18 10:23:55;;;;;;;2.20;0.90;;;;;;;39.52;38.12;100061.02;109370;1274;100449;-68
2023/08/18 10:26:24;;;;;;;2.20;1.50;;;;;;;40.32;37.76;100063.80;109463;1276;22139;-68
2023/08/18 10:28:53;;;;;;;1.80;1.30;;;;;;;39.65;36.24;100065.59;109674;1273;22162;-64
2023/08/18 10:31:21;;;;;;;4.40;1.30;;;;;;;38.91;35.85;100059.24;109459;1276;99774;-65
2023/08/18 10:33:53;;;;;;;2.70;1.50;;;;;;;40.00;36.78;100066.04;109555;1276;22321;-69
2023/08/18 10:36:26;;;;;;;1.80;1.20;;;;;;;42.36;36.21;100068.21;109484;1276;100043;-72
2023/08/18 10:39:29;;;;;;;1.70;1.20;;;;;;;44.44;35.27;100063.73;109579;1269;22167;-70
2023/08/18 10:42:08;;;;;;;2.50;1.80;;;;;;;45.27;31.42;100061.77;109448;1276;100349;-67
2023/08/18 10:44:36;;;;;;;1.90;1.60;;;;;;;45.16;30.48;100058.30;109584;1273;22760;-73
2023/08/18 10:47:28;;;;;;;3.30;1.60;;;;;;;45.51;29.48;100065.53;109562;1276;22313;-71
2023/08/18 10:50:04;;;;;;;5.50;2.20;;;;;;;46.06;28.01;100063.21;109577;1276;22185;-73
2023/08/18 10:52:32;;;;;;;3.90;2.60;;;;;;;46.43;27.25;100065.31;109429;1280;22221;-74
2023/08/18 10:55:00;;;;;;;3.10;2.40;;;;;;;46.65;26.80;100069.41;109422;1276;99670;-68
2023/08/18 10:57:29;;;;;;;3.60;3.00;;;;;;;46.91;26.46;100070.19;109478;1277;22674;-67
2023/08/18 11:00:10;;;;;;;3.60;3.00;;;;;;;46.99;25.57;100072.71;109484;1273;99825;-66
2023/08/18 11:06:03;;;;;;;4.10;3.30;;;;;;;47.98;24.87;100068.20;109434;1273;100681;-61
2023/08/18 11:08:31;;;;;;;4.10;3.80;;;;;;;48.36;24.50;100066.52;109610;1273;22270;-64
2023/08/18 11:10:59;;;;;;;3.70;3.50;;;;;;;48.69;23.87;100063.60;109556;1276;22449;-64
2023/08/18 11:13:31;;;;;;;4.20;3.90;;;;;;;49.12;23.36;100064.63;109527;1277;100393;-70
2023/08/18 11:16:01;;;;;;;3.00;2.80;;;;;;;48.27;22.87;100062.14;109592;1276;23574;-66
2023/08/18 11:18:31;;;;;;;2.30;2.10;;;;;;;45.94;22.84;100063.50;109518;1277;100329;-71
2023/08/18 11:21:00;;;;;;;2.30;1.60;;;;;;;44.15;23.35;100060.02;109604;1276;23232;-70
2023/08/18 11:23:29;;;;;;;3.00;1.90;;;;;;;43.25;24.07;100060.95;109508;1276;99736;-69
2023/08/18 11:25:57;;;;;;;2.20;1.80;;;;;;;42.59;24.30;100061.89;109603;1276;22370;-74
2023/08/18 11:28:25;;;;;;;1.80;1.50;;;;;;;41.68;25.53;100064.14;109556;1276;22875;-60
2023/08/18 11:30:56;;;;;;;3.40;1.70;;;;;;;43.08;26.48;100058.92;109515;1277;100014;-65